createdAt,value
2022-11-10T00:01:11.572Z,4.40
2022-11-10T00:03:40.557Z,3.92
2022-11-10T00:06:09.891Z,4.50
2022-11-10T00:08:37.955Z,2.20
2022-11-10T00:11:09.029Z,4.85
2022-11-10T00:13:59.816Z,2.97
2022-11-10T00:16:56.221Z,3.90
2022-11-10T00:19:23.679Z,3.78
2022-11-10T00:21:51.149Z,3.85
2022-11-10T00:24:18.565Z,3.30
2022-11-10T00:26:46.009Z,3.47
2022-11-10T00:29:13.555Z,3.70
2022-11-10T00:31:42.249Z,4.18
2022-11-10T00:34:14.085Z,6.70
2022-11-10T00:36:41.837Z,4.18
2022-11-10T00:39:09.412Z,3.75
2022-11-10T00:41:36.844Z,3.70
2022-11-10T00:44:04.388Z,3.97
2022-11-10T00:46:31.829Z,3.63
2022-11-10T00:48:59.302Z,3.80
2022-11-10T00:51:29.191Z,3.75
2022-11-10T00:53:56.772Z,3.17
2022-11-10T00:56:25.469Z,3.15
2022-11-10T00:58:53.316Z,3.42
2022-11-10T01:01:23.983Z,5.03
2022-11-10T01:03:52.939Z,3.10
2022-11-10T01:06:21.833Z,3.67
2022-11-10T01:08:49.527Z,5.35
2022-11-10T01:11:21.169Z,4.03
2022-11-10T01:13:48.671Z,4.55
2022-11-10T01:16:27.689Z,3.83
2022-11-10T01:19:01.348Z,3.03
2022-11-10T01:21:30.394Z,4.20
2022-11-10T01:23:58.367Z,4.07
2022-11-10T01:26:25.954Z,2.90
2022-11-10T01:28:53.465Z,4.72
2022-11-10T01:31:22.704Z,3.95
2022-11-10T01:33:50.209Z,3.42
2022-11-10T01:36:17.767Z,4.55
2022-11-10T01:38:45.634Z,4.78
2022-11-10T01:41:14.867Z,3.55
2022-11-10T01:43:42.727Z,3.47
2022-11-10T01:46:12.711Z,4.53
2022-11-10T01:48:45.957Z,5.05
2022-11-10T01:51:32.093Z,3.83
2022-11-10T01:54:04.009Z,4.50
2022-11-10T01:56:35.050Z,3.58
2022-11-10T01:59:08.958Z,4.53
2022-11-10T02:01:36.523Z,4.40
2022-11-10T02:04:07.397Z,4.82
2022-11-10T02:06:39.491Z,3.20
2022-11-10T02:09:07.639Z,4.07
2022-11-10T02:11:36.695Z,4.18
2022-11-10T02:14:05.307Z,3.28
2022-11-10T02:16:33.846Z,3.78
2022-11-10T02:19:21.254Z,3.72
2022-11-10T02:21:48.978Z,4.38
2022-11-10T02:24:16.593Z,3.88
2022-11-10T02:26:54.815Z,5.13
2022-11-10T02:29:23.829Z,3.25
2022-11-10T02:31:51.277Z,3.83
2022-11-10T02:34:19.557Z,4.22
2022-11-10T02:36:46.997Z,4.38
2022-11-10T02:39:14.424Z,4.30
2022-11-10T02:41:41.880Z,4.32
2022-11-10T02:44:09.710Z,3.20
2022-11-10T02:46:37.512Z,4.30
2022-11-10T02:49:05.465Z,6.38
2022-11-10T02:51:33.054Z,3.03
2022-11-10T02:54:00.673Z,4.55
2022-11-10T02:56:28.117Z,4.28
2022-11-10T02:58:55.535Z,3.00
2022-11-10T03:01:22.983Z,4.88
2022-11-10T03:03:50.616Z,4.47
2022-11-10T03:06:18.174Z,4.43
2022-11-10T03:08:45.710Z,3.08
2022-11-10T03:11:13.424Z,4.20
2022-11-10T03:14:00.284Z,4.20
2022-11-10T03:16:28.320Z,3.28
2022-11-10T03:18:55.746Z,4.22
2022-11-10T03:21:23.288Z,3.53
2022-11-10T03:23:50.749Z,3.10
2022-11-10T03:26:18.613Z,4.72
2022-11-10T03:28:46.062Z,3.90
2022-11-10T03:31:13.912Z,4.40
2022-11-10T03:33:41.376Z,3.25
2022-11-10T03:36:09.015Z,5.70
2022-11-10T03:38:36.453Z,3.55
2022-11-10T03:41:18.658Z,5.53
2022-11-10T03:43:46.661Z,4.82
2022-11-10T03:46:14.110Z,5.40
2022-11-10T03:48:41.549Z,4.18
2022-11-10T03:51:09.040Z,3.97
2022-11-10T03:53:36.584Z,4.50
2022-11-10T03:56:06.195Z,4.28
2022-11-10T03:58:33.797Z,4.55
2022-11-10T04:01:01.309Z,4.32
2022-11-10T04:03:28.771Z,5.43
2022-11-10T04:06:13.933Z,7.97
2022-11-10T04:08:58.777Z,4.68
2022-11-10T04:11:44.637Z,6.30
2022-11-10T04:14:29.902Z,7.25
2022-11-10T04:16:57.638Z,6.38
2022-11-10T04:19:25.156Z,4.47
2022-11-10T04:21:52.575Z,4.78
2022-11-10T04:24:20.016Z,4.43
2022-11-10T04:26:48.626Z,5.43
2022-11-10T04:29:20.950Z,5.28
2022-11-10T04:34:16.632Z,4.53
2022-11-10T04:36:46.015Z,5.15
2022-11-10T04:39:13.518Z,4.57
2022-11-10T04:41:40.974Z,4.80
2022-11-10T04:44:08.510Z,5.07
2022-11-10T04:46:39.026Z,4.25
2022-11-10T04:49:07.899Z,3.72
2022-11-10T04:51:38.377Z,4.82
2022-11-10T04:54:08.185Z,4.50
2022-11-10T04:56:35.665Z,3.95
2022-11-10T04:59:03.099Z,3.60
2022-11-10T05:01:30.587Z,3.83
2022-11-10T05:03:59.083Z,4.38
2022-11-10T05:06:26.536Z,4.82
2022-11-10T05:08:54.013Z,5.10
2022-11-10T05:11:21.478Z,5.25
2022-11-10T05:13:49.055Z,6.05
2022-11-10T05:16:16.590Z,5.43
2022-11-10T05:18:44.042Z,5.15
2022-11-10T05:21:11.495Z,4.60
2022-11-10T05:23:39.043Z,4.20
2022-11-10T05:26:17.878Z,4.72
2022-11-10T05:28:47.361Z,3.97
2022-11-10T05:31:14.786Z,5.60
2022-11-10T05:33:42.264Z,3.80
2022-11-10T05:36:11.492Z,4.72
2022-11-10T05:38:43.248Z,4.75
2022-11-10T05:41:11.097Z,4.35
2022-11-10T05:43:38.620Z,5.43
2022-11-10T05:46:06.203Z,4.68
2022-11-10T05:48:33.646Z,5.22
2022-11-10T05:51:01.100Z,4.65
2022-11-10T05:53:28.564Z,5.45
2022-11-10T05:55:56.107Z,5.47
2022-11-10T05:58:23.701Z,5.43
2022-11-10T06:00:51.192Z,4.95
2022-11-10T06:03:20.593Z,4.78
2022-11-10T06:05:48.347Z,9.18
2022-11-10T06:08:17.692Z,4.70
2022-11-10T06:10:45.220Z,7.07
2022-11-10T06:13:12.710Z,7.07
2022-11-10T06:15:40.143Z,5.30
2022-11-10T06:18:07.667Z,4.90
2022-11-10T06:20:35.188Z,4.78
2022-11-10T06:23:05.376Z,4.70
2022-11-10T06:25:35.417Z,5.38
2022-11-10T06:28:03.860Z,4.32
2022-11-10T06:30:32.837Z,3.63
2022-11-10T06:33:00.888Z,5.25
2022-11-10T06:35:29.544Z,6.18
2022-11-10T06:38:05.253Z,4.97
2022-11-10T06:40:34.240Z,4.75
2022-11-10T06:43:02.591Z,4.00
2022-11-10T06:45:30.326Z,3.67
2022-11-10T06:48:15.933Z,5.75
2022-11-10T06:50:43.386Z,6.47
2022-11-10T06:53:10.852Z,5.95
2022-11-10T06:55:38.297Z,4.85
2022-11-10T06:58:05.795Z,4.60
2022-11-10T07:00:33.240Z,5.05
2022-11-10T07:03:08.757Z,3.80
2022-11-10T07:05:37.797Z,4.05
2022-11-10T07:08:13.600Z,4.15
2022-11-10T07:10:41.081Z,3.95
2022-11-10T07:13:08.949Z,4.53
2022-11-10T07:15:36.914Z,3.60
2022-11-10T07:18:05.104Z,6.32
2022-11-10T07:20:33.172Z,3.47
2022-11-10T07:23:06.849Z,3.60
2022-11-10T07:25:37.148Z,3.25
2022-11-10T07:28:10.523Z,3.25
2022-11-10T07:30:38.208Z,5.55
2022-11-10T07:33:08.618Z,4.03
2022-11-10T07:35:36.409Z,4.78
2022-11-10T07:38:06.861Z,3.97
2022-11-10T07:40:34.929Z,3.42
2022-11-10T07:43:02.803Z,4.78
2022-11-10T07:45:31.683Z,3.65
2022-11-10T07:48:07.405Z,4.97
2022-11-10T07:50:35.311Z,6.03
2022-11-10T07:53:07.487Z,4.93
2022-11-10T07:55:35.678Z,3.13
2022-11-10T07:58:03.239Z,4.43
2022-11-10T08:00:31.237Z,4.75
2022-11-10T08:03:11.770Z,3.85
2022-11-10T08:05:40.359Z,2.95
2022-11-10T08:08:08.333Z,3.55
2022-11-10T08:10:36.594Z,4.07
2022-11-10T08:13:09.466Z,5.57
2022-11-10T08:15:37.508Z,4.72
2022-11-10T08:18:23.062Z,4.15
2022-11-10T08:20:50.632Z,4.20
2022-11-10T08:23:18.548Z,3.53
2022-11-10T08:25:47.983Z,3.30
2022-11-10T08:28:18.101Z,4.65
2022-11-10T08:30:47.497Z,3.97
2022-11-10T08:33:19.884Z,3.60
2022-11-10T08:35:52.329Z,3.88
2022-11-10T08:38:24.776Z,2.95
2022-11-10T08:40:52.558Z,3.60
2022-11-10T08:43:20.519Z,2.95
2022-11-10T08:45:48.457Z,3.63
2022-11-10T08:48:21.052Z,2.60
2022-11-10T08:50:50.193Z,3.50
2022-11-10T08:53:23.867Z,4.00
2022-11-10T08:55:53.133Z,3.13
2022-11-10T08:58:23.576Z,2.65
2022-11-10T09:00:51.804Z,2.83
2022-11-10T09:03:23.493Z,2.97
2022-11-10T09:05:57.684Z,2.05
2022-11-10T09:08:25.678Z,2.38
2022-11-10T09:10:53.276Z,3.30
2022-11-10T09:13:27.719Z,3.67
2022-11-10T09:16:01.007Z,2.40
2022-11-10T09:18:29.068Z,3.95
2022-11-10T09:20:56.683Z,1.95
2022-11-10T09:23:25.240Z,2.47
2022-11-10T09:25:56.016Z,3.42
2022-11-10T09:28:24.780Z,2.70
2022-11-10T09:30:52.995Z,2.83
2022-11-10T09:33:20.963Z,2.20
2022-11-10T09:35:48.797Z,2.38
2022-11-10T09:38:16.309Z,3.08
2022-11-10T09:41:02.533Z,2.83
2022-11-10T09:43:42.748Z,2.03
2022-11-10T09:46:37.100Z,2.88
2022-11-10T09:49:18.597Z,2.15
2022-11-10T09:51:48.440Z,2.07
2022-11-10T09:54:38.065Z,2.38
2022-11-10T09:57:08.213Z,2.10
2022-11-10T09:59:36.259Z,2.28
2022-11-10T10:02:20.957Z,2.72
2022-11-10T10:05:16.303Z,2.25
2022-11-10T10:08:05.236Z,4.93
2022-11-10T10:10:55.956Z,2.35
2022-11-10T10:13:42.265Z,2.58
2022-11-10T10:16:27.972Z,3.22
2022-11-10T10:19:07.858Z,2.28
2022-11-10T10:22:14.185Z,2.15
2022-11-10T10:24:42.055Z,2.30
2022-11-10T10:27:18.658Z,2.80
2022-11-10T10:29:50.405Z,2.30
2022-11-10T10:32:18.873Z,2.13
2022-11-10T10:34:47.171Z,2.13
2022-11-10T10:37:23.540Z,2.15
2022-11-10T10:39:55.175Z,1.63
2022-11-10T10:42:33.810Z,2.65
2022-11-10T10:45:14.585Z,2.08
2022-11-10T10:47:42.566Z,1.90
2022-11-10T10:50:37.161Z,2.67
2022-11-10T10:53:33.914Z,1.60
2022-11-10T10:56:20.160Z,2.53
2022-11-10T10:58:59.690Z,1.88
2022-11-10T11:01:40.502Z,1.75
2022-11-10T11:04:35.864Z,2.75
2022-11-10T11:07:07.489Z,2.17
2022-11-10T11:09:44.433Z,2.65
2022-11-10T11:12:32.993Z,2.30
2022-11-10T11:15:21.760Z,2.80
2022-11-10T11:18:03.756Z,2.83
2022-11-10T11:20:51.669Z,2.63
2022-11-10T11:23:58.275Z,3.50
2022-11-10T11:26:36.865Z,2.83
2022-11-10T11:29:25.054Z,2.22
2022-11-10T11:32:12.136Z,2.13
2022-11-10T11:34:48.348Z,1.55
2022-11-10T11:37:26.755Z,1.92
2022-11-10T11:40:32.365Z,2.60
2022-11-10T11:43:15.566Z,2.53
2022-11-10T11:45:51.428Z,1.27
2022-11-10T11:48:53.853Z,2.08
2022-11-10T11:51:27.189Z,1.40
2022-11-10T11:54:09.653Z,1.48
2022-11-10T11:56:42.305Z,1.95
2022-11-10T11:59:28.473Z,2.10
2022-11-10T12:02:34.028Z,2.78
2022-11-10T12:05:21.603Z,1.40
2022-11-10T12:08:15.094Z,2.90
2022-11-10T12:10:54.600Z,1.33
2022-11-10T12:13:36.508Z,3.88
2022-11-10T12:16:30.205Z,1.63
2022-11-10T12:19:27.405Z,1.85
2022-11-10T12:22:02.019Z,1.30
2022-11-10T12:24:58.432Z,1.75
2022-11-10T12:27:38.539Z,1.83
2022-11-10T12:30:11.794Z,1.63
2022-11-10T12:33:03.510Z,1.80
2022-11-10T12:35:35.173Z,2.00
2022-11-10T12:38:15.391Z,1.92
2022-11-10T12:41:15.748Z,2.22
2022-11-10T12:43:52.084Z,2.17
2022-11-10T12:46:19.620Z,1.92
2022-11-10T12:49:07.405Z,1.60
2022-11-10T12:52:01.439Z,2.05
2022-11-10T12:54:32.269Z,1.30
2022-11-10T12:57:08.074Z,2.10
2022-11-10T12:59:38.734Z,1.88
2022-11-10T13:02:17.292Z,1.42
2022-11-10T13:04:44.913Z,1.20
2022-11-10T13:07:14.352Z,1.73
2022-11-10T13:09:45.842Z,1.77
2022-11-10T13:12:19.770Z,1.30
2022-11-10T13:14:48.317Z,1.27
2022-11-10T13:17:27.949Z,1.75
2022-11-10T13:20:20.876Z,1.30
2022-11-10T13:22:48.364Z,2.38
2022-11-10T13:25:37.901Z,1.35
2022-11-10T13:28:09.185Z,1.73
2022-11-10T13:30:46.085Z,1.70
2022-11-10T13:33:36.932Z,1.38
2022-11-10T13:36:05.434Z,1.67
2022-11-10T13:38:36.758Z,1.50
2022-11-10T13:41:34.351Z,1.30
2022-11-10T13:44:02.544Z,1.48
2022-11-10T13:46:38.623Z,1.33
2022-11-10T13:49:19.785Z,1.25
2022-11-10T13:52:17.095Z,1.20
2022-11-10T13:54:59.557Z,1.67
2022-11-10T14:00:01.208Z,1.40
2022-11-10T14:02:36.205Z,1.33
2022-11-10T14:05:08.795Z,1.67
2022-11-10T14:07:41.046Z,1.38
2022-11-10T14:12:47.254Z,1.48
2022-11-10T14:15:21.329Z,1.35
2022-11-10T14:17:52.558Z,1.08
2022-11-10T14:20:30.885Z,1.80
2022-11-10T14:22:59.005Z,1.60
2022-11-10T14:25:34.827Z,1.45
2022-11-10T14:28:02.547Z,1.20
2022-11-10T14:30:33.328Z,1.10
2022-11-10T14:33:10.575Z,1.30
2022-11-10T14:35:54.536Z,1.20
2022-11-10T14:38:25.346Z,1.50
2022-11-10T14:40:58.917Z,1.55
2022-11-10T14:43:59.453Z,1.10
2022-11-10T14:46:26.892Z,1.90
2022-11-10T14:48:59.624Z,1.00
2022-11-10T14:51:29.868Z,1.20
2022-11-10T14:53:58.935Z,1.52
2022-11-10T14:56:37.449Z,1.00
2022-11-10T14:59:07.478Z,0.95
2022-11-10T15:01:39.049Z,1.63
2022-11-10T15:04:09.355Z,1.05
2022-11-10T15:06:37.382Z,1.00
2022-11-10T15:09:32.567Z,1.38
2022-11-10T15:12:28.041Z,0.88
2022-11-10T15:15:01.137Z,1.23
2022-11-10T15:17:45.799Z,1.85
2022-11-10T15:20:41.934Z,1.33
2022-11-10T15:23:32.125Z,1.17
2022-11-10T15:26:00.839Z,0.90
2022-11-10T15:28:31.537Z,1.17
2022-11-10T15:31:02.280Z,1.00
2022-11-10T15:33:34.817Z,1.33
2022-11-10T15:36:20.511Z,0.90
2022-11-10T15:39:15.362Z,2.08
2022-11-10T15:41:51.057Z,1.77
2022-11-10T15:44:21.165Z,1.58
2022-11-10T15:46:52.057Z,1.08
2022-11-10T15:49:32.134Z,1.10
2022-11-10T15:52:02.669Z,1.65
2022-11-10T15:54:36.647Z,2.40
2022-11-10T15:57:04.428Z,2.03
2022-11-10T15:59:31.891Z,1.52
2022-11-10T16:02:00.164Z,1.60
2022-11-10T16:04:28.175Z,1.70
2022-11-10T16:06:56.897Z,1.58
2022-11-10T16:09:24.373Z,1.98
2022-11-10T16:11:51.851Z,1.27
2022-11-10T16:14:19.497Z,1.50
2022-11-10T16:16:46.979Z,3.50
2022-11-10T16:19:14.424Z,4.03
2022-11-10T16:21:41.938Z,2.58
2022-11-10T16:24:09.889Z,2.53
2022-11-10T16:26:37.542Z,1.48
2022-11-10T16:29:11.812Z,2.30
2022-11-10T16:31:39.299Z,2.58
2022-11-10T16:34:06.738Z,1.88
2022-11-10T16:36:35.418Z,2.85
2022-11-10T16:39:04.085Z,3.45
2022-11-10T16:41:31.535Z,3.10
2022-11-10T16:43:59.004Z,7.70
2022-11-10T16:46:29.588Z,1.77
2022-11-10T16:49:00.167Z,1.55
2022-11-10T16:51:38.171Z,1.98
2022-11-10T16:54:05.664Z,1.60
2022-11-10T16:56:33.246Z,2.03
2022-11-10T16:59:00.730Z,1.05
2022-11-10T17:01:31.780Z,3.08
2022-11-10T17:04:06.978Z,7.60
2022-11-10T17:06:34.936Z,2.00
2022-11-10T17:09:17.165Z,1.38
2022-11-10T17:11:44.651Z,12.30
2022-11-10T17:14:14.069Z,5.15
2022-11-10T17:16:45.254Z,6.43
2022-11-10T17:19:23.415Z,3.00
2022-11-10T17:21:52.385Z,4.95
2022-11-10T17:24:19.928Z,2.78
2022-11-10T17:26:48.236Z,3.92
2022-11-10T17:29:20.977Z,2.35
2022-11-10T17:31:50.178Z,1.60
2022-11-10T17:34:17.686Z,2.55
2022-11-10T17:36:45.506Z,3.55
2022-11-10T17:39:15.569Z,1.20
2022-11-10T17:41:43.746Z,2.10
2022-11-10T17:44:16.154Z,1.83
2022-11-10T17:46:44.196Z,2.22
2022-11-10T17:49:11.691Z,1.13
2022-11-10T17:51:40.434Z,1.17
2022-11-10T17:54:14.523Z,1.58
2022-11-10T17:56:42.736Z,1.02
2022-11-10T17:59:10.214Z,2.15
2022-11-10T18:01:37.702Z,3.22
2022-11-10T18:04:05.163Z,1.20
2022-11-10T18:06:32.887Z,1.27
2022-11-10T18:09:00.339Z,1.73
2022-11-10T18:11:27.753Z,1.75
2022-11-10T18:13:55.220Z,1.27
2022-11-10T18:16:23.341Z,2.25
2022-11-10T18:18:50.762Z,1.80
2022-11-10T18:21:18.264Z,2.38
2022-11-10T18:23:45.768Z,1.30
2022-11-10T18:26:13.197Z,1.10
2022-11-10T18:28:42.028Z,1.55
2022-11-10T18:31:12.477Z,2.60
2022-11-10T18:33:39.999Z,1.50
2022-11-10T18:36:08.765Z,1.40
2022-11-10T18:38:36.425Z,1.27
2022-11-10T18:41:22.083Z,1.30
2022-11-10T18:43:49.617Z,1.83
2022-11-10T18:46:17.195Z,1.83
2022-11-10T18:48:46.486Z,1.40
2022-11-10T18:51:14.024Z,1.83
2022-11-10T18:53:41.537Z,1.40
2022-11-10T18:56:09.048Z,1.55
2022-11-10T18:58:36.481Z,1.85
2022-11-10T19:01:08.801Z,2.13
2022-11-10T19:03:36.880Z,2.15
2022-11-10T19:06:05.105Z,2.50
2022-11-10T19:08:32.614Z,1.75
2022-11-10T19:11:00.103Z,1.60
2022-11-10T19:13:27.646Z,1.40
2022-11-10T19:16:00.015Z,2.35
2022-11-10T19:20:57.670Z,2.83
2022-11-10T19:23:25.515Z,1.40
2022-11-10T19:26:01.389Z,1.80
2022-11-10T19:28:29.876Z,1.60
2022-11-10T19:31:27.231Z,2.40
2022-11-10T19:33:56.499Z,3.38
2022-11-10T19:36:26.579Z,1.58
2022-11-10T19:38:55.149Z,1.52
2022-11-10T19:41:27.752Z,1.85
2022-11-10T19:43:55.790Z,1.73
2022-11-10T19:46:28.764Z,1.45
2022-11-10T19:48:56.525Z,1.40
2022-11-10T19:51:25.714Z,2.10
2022-11-10T19:54:01.346Z,1.60
2022-11-10T19:56:31.919Z,2.67
2022-11-10T19:59:00.039Z,2.67
2022-11-10T20:01:27.801Z,2.03
2022-11-10T20:03:55.359Z,1.85
2022-11-10T20:06:23.634Z,2.45
2022-11-10T20:08:51.421Z,2.00
2022-11-10T20:11:23.938Z,1.92
2022-11-10T20:13:55.222Z,2.38
2022-11-10T20:16:23.707Z,2.35
2022-11-10T20:18:51.136Z,1.95
2022-11-10T20:21:23.528Z,3.17
2022-11-10T20:23:57.676Z,3.07
2022-11-10T20:26:26.049Z,2.38
2022-11-10T20:28:53.483Z,2.85
2022-11-10T20:31:24.284Z,3.85
2022-11-10T20:33:53.545Z,3.00
2022-11-10T20:36:27.259Z,3.45
2022-11-10T20:38:56.889Z,4.15
2022-11-10T20:41:29.581Z,3.28
2022-11-10T20:43:57.097Z,2.95
2022-11-10T20:49:12.010Z,4.80
2022-11-10T20:51:39.505Z,3.75
2022-11-10T20:54:06.994Z,3.53
2022-11-10T20:56:34.419Z,3.17
2022-11-10T20:59:01.850Z,4.15
2022-11-10T21:01:29.820Z,4.20
2022-11-10T21:03:57.385Z,4.57
2022-11-10T21:06:24.816Z,4.13
2022-11-10T21:08:53.500Z,4.70
2022-11-10T21:11:34.860Z,4.88
2022-11-10T21:14:02.679Z,4.10
2022-11-10T21:16:30.108Z,4.00
2022-11-10T21:18:58.018Z,4.93
2022-11-10T21:21:27.911Z,5.57
2022-11-10T21:23:57.346Z,5.45
2022-11-10T21:26:25.163Z,4.65
2022-11-10T21:28:52.612Z,4.70
2022-11-10T21:31:20.057Z,5.00
2022-11-10T21:33:47.508Z,5.85
2022-11-10T21:36:15.060Z,4.78
2022-11-10T21:38:46.845Z,4.53
2022-11-10T21:41:14.905Z,3.70
2022-11-10T21:43:43.361Z,6.43
2022-11-10T21:46:11.354Z,6.05
2022-11-10T21:48:38.972Z,4.50
2022-11-10T21:51:08.756Z,4.65
2022-11-10T21:53:39.053Z,5.18
2022-11-10T21:56:08.587Z,4.85
2022-11-10T21:58:36.408Z,6.15
2022-11-10T22:01:10.638Z,5.05
2022-11-10T22:03:38.348Z,6.20
2022-11-10T22:06:15.180Z,6.47
2022-11-10T22:08:44.393Z,6.75
2022-11-10T22:11:35.740Z,5.07
2022-11-10T22:14:21.060Z,5.95
2022-11-10T22:17:07.907Z,7.70
2022-11-10T22:19:36.891Z,5.30
2022-11-10T22:22:04.735Z,5.97
2022-11-10T22:24:33.702Z,5.13
2022-11-10T22:27:03.133Z,7.03
2022-11-10T22:29:33.381Z,5.30
2022-11-10T22:32:02.093Z,5.53
2022-11-10T22:34:30.097Z,6.25
2022-11-10T22:36:59.358Z,5.00
2022-11-10T22:39:47.314Z,6.45
2022-11-10T22:42:32.908Z,4.93
2022-11-10T22:45:00.400Z,6.43
2022-11-10T22:47:47.844Z,6.72
2022-11-10T22:50:15.335Z,6.47
2022-11-10T22:52:42.770Z,6.97
2022-11-10T22:55:10.485Z,5.53
2022-11-10T22:57:38.021Z,7.18
2022-11-10T23:00:06.060Z,6.43
2022-11-10T23:02:33.523Z,7.43
2022-11-10T23:05:00.977Z,6.32
2022-11-10T23:07:29.604Z,6.22
2022-11-10T23:09:57.048Z,7.68
2022-11-10T23:12:24.511Z,7.40
2022-11-10T23:14:51.947Z,6.88
2022-11-10T23:17:19.383Z,7.35
2022-11-10T23:19:46.815Z,7.45
2022-11-10T23:22:14.269Z,6.97
2022-11-10T23:24:41.754Z,7.57
2022-11-10T23:27:09.261Z,7.40
2022-11-10T23:29:36.692Z,6.63
2022-11-10T23:32:04.250Z,6.63
2022-11-10T23:34:31.738Z,6.60
2022-11-10T23:36:59.185Z,9.50
2022-11-10T23:39:27.028Z,6.88
2022-11-10T23:41:54.448Z,7.72
2022-11-10T23:44:21.920Z,7.68
2022-11-10T23:46:49.377Z,9.00
2022-11-10T23:49:16.836Z,8.73
2022-11-10T23:51:44.314Z,8.35
2022-11-10T23:54:11.779Z,8.68
2022-11-10T23:56:39.230Z,7.93
2022-11-10T23:59:06.690Z,7.88
